KFPR/FPR METAR and TAF weather

Enter ICAO airport designator
Station Type Date Time Source
KFPR METAR 2021/05/13 17:53 UTC NOAA

KFPR 131753Z 03009G18KT 350V050 10SM BKN024 27/20 A3005 RMK AO2 SLP175 T02670200 10283 20233 58005


Station Type Date Time Source
KFPR Decoded METAR 2021/05/13 17:53 UTC NOAA

FORT PIERCE ST LUCIE, FL, United States (KFPR) 27-30N 080-23W 13M
May 13, 2021 - 01:53 PM EDT / 2021.05.13 1753 UTC
Wind: from the NNE (030 degrees) at 10 MPH (9 KT) gusting to 21 MPH (18 KT) (direction variable):0
Visibility: 10 mile(s):0
Sky conditions: mostly cloudy
Temperature: 80.1 F (26.7 C)
Dew Point: 68.0 F (20.0 C)
Relative Humidity: 66%
Pressure (altimeter): 30.05 in. Hg (1017 hPa)
Pressure tendency: 0.01 inches (0.5 hPa) lower than three hours ago
ob: KFPR 131753Z 03009G18KT 350V050 10SM BKN024 27/20 A3005 RMK AO2 SLP175 T02670200 10283 20233 58005
cycle: 18

Station Type Date Time Source
KFPR TAF 2021/05/13 18:42 UTC NOAA

TAF KFPR 131739Z 1318/1418 01011KT P6SM BKN020
FM132100 35007KT P6SM VCSH BKN025
FM140200 01003KT P6SM SCT035
FM141600 02009KT P6SM SCT040 BKN070

Example: see airport list